createdAt,value
2022-11-14T00:00:29.434Z,26.10
2022-11-14T00:02:59.381Z,25.40
2022-11-14T00:05:28.130Z,26.50
2022-11-14T00:07:54.781Z,26.38
2022-11-14T00:10:22.224Z,25.17
2022-11-14T00:12:48.883Z,26.10
2022-11-14T00:15:15.788Z,25.55
2022-11-14T00:17:42.443Z,26.17
2022-11-14T00:20:10.924Z,25.98
2022-11-14T00:22:37.490Z,23.85
2022-11-14T00:25:04.752Z,24.42
2022-11-14T00:27:31.372Z,25.88
2022-11-14T00:29:57.942Z,25.38
2022-11-14T00:32:24.610Z,25.67
2022-11-14T00:34:51.321Z,25.27
2022-11-14T00:37:18.383Z,25.95
2022-11-14T00:39:44.967Z,24.58
2022-11-14T00:42:11.532Z,25.00
2022-11-14T00:44:38.136Z,23.77
2022-11-14T00:47:04.991Z,24.98
2022-11-14T00:49:31.618Z,26.13
2022-11-14T00:51:58.277Z,24.58
2022-11-14T00:54:26.642Z,24.60
2022-11-14T00:56:53.395Z,24.05
2022-11-14T00:59:20.043Z,24.33
2022-11-14T01:01:46.658Z,25.83
2022-11-14T01:04:13.502Z,24.73
2022-11-14T01:06:40.150Z,24.65
2022-11-14T01:09:06.859Z,25.00
2022-11-14T01:11:33.506Z,25.13
2022-11-14T01:14:00.088Z,24.48
2022-11-14T01:16:26.674Z,24.10
2022-11-14T01:18:53.376Z,24.38
2022-11-14T01:21:19.994Z,23.88
2022-11-14T01:23:46.573Z,24.38
2022-11-14T01:26:14.575Z,25.40
2022-11-14T01:28:41.512Z,24.50
2022-11-14T01:31:15.943Z,22.92
2022-11-14T01:33:43.342Z,24.52
2022-11-14T01:36:11.135Z,23.90
2022-11-14T01:38:38.459Z,23.25
2022-11-14T01:41:05.918Z,21.63
2022-11-14T01:43:34.782Z,23.10
2022-11-14T01:46:05.967Z,22.73
2022-11-14T01:48:44.279Z,22.25
2022-11-14T01:51:16.719Z,23.40
2022-11-14T01:53:45.647Z,22.75
2022-11-14T01:56:15.274Z,22.65
2022-11-14T01:58:46.462Z,23.33
2022-11-14T02:01:13.847Z,21.42
2022-11-14T02:03:44.097Z,21.77
2022-11-14T02:06:14.955Z,22.35
2022-11-14T02:08:42.973Z,23.23
2022-11-14T02:11:13.130Z,21.90
2022-11-14T02:13:39.852Z,22.02
2022-11-14T02:16:07.229Z,21.70
2022-11-14T02:18:34.692Z,20.92
2022-11-14T02:21:01.333Z,21.58
2022-11-14T02:23:30.461Z,21.48
2022-11-14T02:25:57.171Z,21.50
2022-11-14T02:28:24.362Z,21.90
2022-11-14T02:30:51.009Z,22.20
2022-11-14T02:33:17.700Z,21.90
2022-11-14T02:35:44.269Z,21.05
2022-11-14T02:38:11.093Z,21.95
2022-11-14T02:40:37.753Z,20.77
2022-11-14T02:43:04.490Z,20.75
2022-11-14T02:45:31.112Z,20.73
2022-11-14T02:47:57.754Z,21.67
2022-11-14T02:50:24.334Z,21.45
2022-11-14T02:52:52.153Z,21.38
2022-11-14T02:55:19.171Z,21.38
2022-11-14T02:57:46.019Z,21.13
2022-11-14T03:00:15.190Z,21.65
2022-11-14T03:02:42.194Z,20.05
2022-11-14T03:05:09.171Z,21.27
2022-11-14T03:07:35.898Z,20.08
2022-11-14T03:10:02.630Z,21.27
2022-11-14T03:12:30.331Z,19.60
2022-11-14T03:14:56.957Z,20.30
2022-11-14T03:17:24.628Z,19.98
2022-11-14T03:19:51.476Z,21.83
2022-11-14T03:22:18.252Z,20.83
2022-11-14T03:24:44.861Z,21.67
2022-11-14T03:27:11.553Z,21.00
2022-11-14T03:29:38.400Z,20.45
2022-11-14T03:32:05.211Z,20.63
2022-11-14T03:34:32.082Z,20.48
2022-11-14T03:36:58.776Z,21.42
2022-11-14T03:39:25.347Z,21.48
2022-11-14T03:41:52.002Z,20.58
2022-11-14T03:44:18.596Z,21.05
2022-11-14T03:46:45.428Z,21.52
2022-11-14T03:49:12.038Z,21.60
2022-11-14T03:51:39.078Z,22.52
2022-11-14T03:54:05.995Z,22.13
2022-11-14T03:56:34.400Z,22.45
2022-11-14T03:59:01.092Z,21.95
2022-11-14T04:01:29.215Z,22.25
2022-11-14T04:03:56.289Z,21.60
2022-11-14T04:06:23.499Z,22.13
2022-11-14T04:08:52.011Z,21.08
2022-11-14T04:11:19.583Z,22.40
2022-11-14T04:13:46.257Z,22.13
2022-11-14T04:16:12.839Z,22.27
2022-11-14T04:18:39.486Z,22.15
2022-11-14T04:21:06.104Z,21.77
2022-11-14T04:23:32.756Z,21.38
2022-11-14T04:25:59.331Z,21.95
2022-11-14T04:28:25.939Z,21.90
2022-11-14T04:30:52.688Z,22.08
2022-11-14T04:33:19.332Z,21.77
2022-11-14T04:35:46.020Z,22.42
2022-11-14T04:38:12.748Z,21.52
2022-11-14T04:40:39.337Z,21.73
2022-11-14T04:43:06.005Z,21.67
2022-11-14T04:45:32.645Z,21.10
2022-11-14T04:47:59.555Z,20.85
2022-11-14T04:50:26.235Z,21.90
2022-11-14T04:52:53.922Z,23.00
2022-11-14T04:55:20.489Z,21.33
2022-11-14T04:57:47.080Z,22.17
2022-11-14T05:00:14.378Z,22.85
2022-11-14T05:02:40.938Z,21.70
2022-11-14T05:05:07.935Z,21.50
2022-11-14T05:07:37.559Z,22.13
2022-11-14T05:10:04.671Z,21.90
2022-11-14T05:12:31.502Z,22.70
2022-11-14T05:14:58.084Z,22.85
2022-11-14T05:17:24.976Z,22.20
2022-11-14T05:22:32.696Z,22.50
2022-11-14T05:24:59.325Z,22.92
2022-11-14T05:27:29.112Z,22.55
2022-11-14T05:29:55.799Z,22.33
2022-11-14T05:32:22.502Z,23.23
2022-11-14T05:34:49.171Z,21.77
2022-11-14T05:37:36.262Z,22.95
2022-11-14T05:45:33.005Z,23.08
2022-11-14T05:47:59.620Z,23.13
2022-11-14T05:50:26.450Z,23.95
2022-11-14T05:52:53.102Z,23.67
2022-11-14T05:55:24.561Z,22.55
2022-11-14T05:57:51.590Z,24.00
2022-11-14T06:00:18.506Z,22.85
2022-11-14T06:02:46.137Z,22.35
2022-11-14T06:05:12.867Z,24.63
2022-11-14T06:07:39.671Z,22.52
2022-11-14T06:10:07.154Z,24.38
2022-11-14T06:12:37.585Z,23.98
2022-11-14T06:15:08.026Z,24.23
2022-11-14T06:21:11.856Z,23.65
2022-11-14T06:23:45.334Z,23.17
2022-11-14T06:26:32.721Z,23.92
2022-11-14T06:29:00.799Z,24.55
2022-11-14T06:31:27.924Z,24.33
2022-11-14T06:33:54.980Z,24.67
2022-11-14T06:36:22.015Z,24.20
2022-11-14T06:38:48.662Z,24.80
2022-11-14T06:41:18.283Z,24.75
2022-11-14T06:43:47.424Z,24.58
2022-11-14T06:46:58.890Z,25.30
2022-11-14T06:49:26.104Z,24.30
2022-11-14T06:51:52.749Z,25.90
2022-11-14T06:54:20.055Z,24.75
2022-11-14T06:56:46.720Z,25.50
2022-11-14T06:59:14.308Z,23.90
2022-11-14T07:01:40.943Z,24.52
2022-11-14T07:04:09.112Z,25.15
2022-11-14T07:06:35.734Z,24.92
2022-11-14T07:09:17.167Z,24.05
2022-11-14T07:11:46.809Z,24.48
2022-11-14T07:14:13.571Z,24.63
2022-11-14T07:16:40.359Z,24.30
2022-11-14T07:19:09.767Z,25.80
2022-11-14T07:28:30.373Z,24.00
2022-11-14T07:38:50.595Z,24.00
2022-11-14T07:41:20.421Z,24.70
2022-11-14T08:03:04.091Z,23.75
2022-11-14T08:04:37.009Z,24.77
2022-11-14T08:05:30.804Z,23.42
2022-11-14T08:07:57.399Z,24.00
2022-11-14T08:10:24.097Z,23.92
2022-11-14T08:13:17.579Z,24.50
2022-11-14T08:15:45.988Z,23.42
2022-11-14T08:18:12.650Z,24.75
2022-11-14T08:20:39.264Z,23.00
2022-11-14T08:23:09.392Z,23.77
2022-11-14T08:25:36.274Z,23.95
2022-11-14T08:28:03.360Z,24.55
2022-11-14T08:30:30.548Z,24.92
2022-11-14T08:32:57.445Z,22.95
2022-11-14T08:35:24.173Z,22.15
2022-11-14T08:37:50.809Z,23.52
2022-11-14T08:40:17.573Z,23.88
2022-11-14T08:42:44.168Z,23.75
2022-11-14T08:45:11.091Z,22.52
2022-11-14T08:47:37.704Z,22.33
2022-11-14T08:50:04.960Z,23.55
2022-11-14T08:52:31.572Z,22.15
2022-11-14T08:54:58.335Z,22.45
2022-11-14T08:57:24.948Z,21.92
2022-11-14T08:59:52.016Z,22.38
2022-11-14T09:02:18.633Z,21.15
2022-11-14T09:04:45.396Z,22.27
2022-11-14T09:07:12.268Z,21.95
2022-11-14T09:09:39.512Z,21.48
2022-11-14T09:12:06.332Z,20.77
2022-11-14T09:14:32.993Z,21.48
2022-11-14T09:17:04.624Z,20.83
2022-11-14T09:19:32.827Z,21.40
2022-11-14T09:21:59.433Z,21.65
2022-11-14T09:24:26.103Z,20.80
2022-11-14T09:26:56.578Z,21.63
2022-11-14T09:29:23.762Z,21.25
2022-11-14T09:31:51.696Z,21.25
2022-11-14T09:34:18.496Z,20.88
2022-11-14T09:36:46.539Z,21.02
2022-11-14T09:39:13.280Z,20.55
2022-11-14T09:41:58.068Z,20.67
2022-11-14T09:44:43.745Z,21.75
2022-11-14T09:47:20.233Z,21.65
2022-11-14T09:49:51.522Z,20.95
2022-11-14T09:52:47.648Z,20.85
2022-11-14T09:55:20.174Z,19.75
2022-11-14T09:57:47.578Z,20.83
2022-11-14T10:00:20.567Z,20.60
2022-11-14T10:02:59.353Z,20.98
2022-11-14T10:06:02.746Z,20.85
2022-11-14T10:08:41.826Z,20.45
2022-11-14T10:11:16.571Z,21.83
2022-11-14T10:14:15.524Z,21.10
2022-11-14T10:16:49.364Z,20.27
2022-11-14T10:19:43.790Z,20.38
2022-11-14T10:22:40.667Z,21.13
2022-11-14T10:25:22.460Z,20.95
2022-11-14T10:28:09.057Z,21.25
2022-11-14T10:30:45.263Z,21.52
2022-11-14T10:33:32.886Z,21.40
2022-11-14T10:36:11.657Z,20.02
2022-11-14T10:38:54.080Z,22.58
2022-11-14T10:41:50.098Z,21.55
2022-11-14T10:44:14.843Z,22.02
2022-11-14T10:46:52.312Z,20.85
2022-11-14T10:49:22.252Z,20.77
2022-11-14T10:52:01.463Z,21.65
2022-11-14T10:54:56.253Z,21.70
2022-11-14T10:57:23.458Z,20.67
2022-11-14T10:59:56.124Z,20.48
2022-11-14T11:02:23.088Z,19.75
2022-11-14T11:04:49.752Z,19.63
2022-11-14T11:07:43.825Z,18.05
2022-11-14T11:10:40.771Z,18.88
2022-11-14T11:13:13.616Z,18.27
2022-11-14T11:15:41.926Z,19.52
2022-11-14T11:18:34.476Z,19.25
2022-11-14T11:21:05.839Z,19.02
2022-11-14T11:23:33.293Z,18.48
2022-11-14T11:26:11.021Z,18.48
2022-11-14T11:28:37.804Z,18.52
2022-11-14T11:31:07.499Z,19.35
2022-11-14T11:33:38.834Z,18.17
2022-11-14T11:36:12.055Z,19.10
2022-11-14T11:38:39.864Z,19.30
2022-11-14T11:42:07.749Z,19.83
2022-11-14T11:44:29.396Z,20.73
2022-11-14T11:47:00.939Z,18.90
2022-11-14T11:49:30.892Z,18.55
2022-11-14T11:52:05.320Z,19.38
2022-11-14T11:54:57.735Z,18.05
2022-11-14T11:57:31.189Z,17.65
2022-11-14T12:00:23.462Z,18.80
2022-11-14T12:02:52.552Z,18.95
2022-11-14T12:06:02.774Z,19.45
2022-11-14T12:08:46.053Z,18.52
2022-11-14T12:11:20.010Z,18.77
2022-11-14T12:14:01.533Z,18.13
2022-11-14T12:16:40.292Z,18.35
2022-11-14T12:19:13.340Z,18.67
2022-11-14T12:22:27.422Z,19.48
2022-11-14T12:25:22.072Z,18.95
2022-11-14T12:28:03.043Z,17.63
2022-11-14T12:30:31.571Z,16.05
2022-11-14T12:33:09.525Z,16.63
2022-11-14T12:35:37.252Z,18.55
2022-11-14T12:38:13.007Z,17.40
2022-11-14T12:40:42.528Z,18.27
2022-11-14T12:43:37.546Z,18.33
2022-11-14T12:46:09.210Z,17.13
2022-11-14T12:48:44.133Z,16.70
2022-11-14T12:51:46.212Z,15.50
2022-11-14T12:54:45.572Z,17.63
2022-11-14T12:57:41.307Z,17.38
2022-11-14T13:00:09.259Z,16.70
2022-11-14T13:02:56.634Z,17.73
2022-11-14T13:05:47.216Z,17.30
2022-11-14T13:08:28.693Z,17.45
2022-11-14T13:10:55.959Z,18.00
2022-11-14T13:13:42.099Z,18.05
2022-11-14T13:16:45.104Z,17.13
2022-11-14T13:19:30.537Z,17.90
2022-11-14T13:22:12.671Z,17.15
2022-11-14T13:25:11.386Z,18.40
2022-11-14T13:28:07.367Z,17.00
2022-11-14T13:31:06.831Z,17.45
2022-11-14T13:33:51.050Z,17.48
2022-11-14T13:36:32.328Z,16.92
2022-11-14T13:39:18.011Z,17.23
2022-11-14T13:41:59.844Z,17.40
2022-11-14T13:44:44.698Z,17.42
2022-11-14T13:47:18.410Z,16.88
2022-11-14T13:50:06.697Z,17.42
2022-11-14T13:52:35.403Z,17.48
2022-11-14T13:55:02.779Z,18.70
2022-11-14T13:57:42.373Z,18.60
2022-11-14T14:00:20.694Z,17.77
2022-11-14T14:03:18.694Z,18.05
2022-11-14T14:05:45.273Z,18.15
2022-11-14T14:08:21.049Z,18.52
2022-11-14T14:11:14.499Z,17.70
2022-11-14T14:14:16.835Z,17.63
2022-11-14T14:17:09.935Z,16.55
2022-11-14T14:20:01.234Z,17.38
2022-11-14T14:22:37.549Z,16.38
2022-11-14T14:25:43.640Z,16.63
2022-11-14T14:28:29.306Z,15.95
2022-11-14T14:31:12.161Z,16.27
2022-11-14T14:33:47.163Z,16.40
2022-11-14T14:36:26.222Z,16.35
2022-11-14T14:39:17.051Z,15.88
2022-11-14T14:41:43.974Z,16.17
2022-11-14T14:44:19.308Z,16.15
2022-11-14T14:46:46.022Z,16.98
2022-11-14T14:49:34.732Z,17.77
2022-11-14T14:52:01.819Z,17.25
2022-11-14T14:54:29.734Z,17.08
2022-11-14T14:57:00.338Z,16.25
2022-11-14T14:59:29.626Z,18.15
2022-11-14T15:01:58.242Z,16.55
2022-11-14T15:07:04.888Z,17.77
2022-11-14T15:09:31.567Z,17.38
2022-11-14T15:12:01.291Z,17.90
2022-11-14T15:14:30.764Z,17.27
2022-11-14T15:16:59.284Z,18.27
2022-11-14T15:19:35.849Z,18.75
2022-11-14T15:22:04.565Z,18.17
2022-11-14T15:24:31.820Z,18.67
2022-11-14T15:26:58.602Z,19.02
2022-11-14T15:29:27.549Z,20.02
2022-11-14T15:32:04.900Z,20.00
2022-11-14T15:34:34.348Z,19.98
2022-11-14T15:37:10.278Z,21.30
2022-11-14T15:39:38.061Z,21.35
2022-11-14T15:42:23.909Z,21.52
2022-11-14T15:44:51.303Z,21.25
2022-11-14T15:47:39.024Z,22.30
2022-11-14T15:50:25.195Z,22.02
2022-11-14T15:53:17.998Z,24.42
2022-11-14T15:55:46.122Z,22.55
2022-11-14T15:58:27.899Z,23.30
2022-11-14T16:00:55.802Z,25.83
2022-11-14T16:03:23.177Z,24.40
2022-11-14T16:05:49.773Z,25.65
2022-11-14T16:08:16.328Z,26.55
2022-11-14T16:10:43.145Z,25.48
2022-11-14T16:13:11.149Z,26.60
2022-11-14T16:15:38.032Z,27.25
2022-11-14T16:18:05.489Z,27.85
2022-11-14T16:20:37.855Z,30.55
2022-11-14T16:23:05.319Z,28.33
2022-11-14T16:25:32.632Z,27.47
2022-11-14T16:27:59.204Z,26.73
2022-11-14T16:30:26.261Z,26.83
2022-11-14T16:32:52.913Z,27.98
2022-11-14T16:35:21.788Z,30.40
2022-11-14T16:37:48.965Z,30.07
2022-11-14T16:40:27.887Z,32.20
2022-11-14T16:42:56.463Z,28.20
2022-11-14T16:45:50.963Z,28.63
2022-11-14T16:48:43.756Z,30.17
2022-11-14T16:51:47.035Z,31.67
2022-11-14T16:54:07.096Z,32.43
2022-11-14T16:56:37.684Z,30.83
2022-11-14T16:59:07.820Z,31.58
2022-11-14T17:01:35.174Z,31.37
2022-11-14T17:04:03.164Z,31.77
2022-11-14T17:06:30.479Z,30.55
2022-11-14T17:08:59.080Z,29.53
2022-11-14T17:11:29.525Z,31.93
2022-11-14T17:13:56.947Z,33.20
2022-11-14T17:16:24.323Z,32.47
2022-11-14T17:18:52.773Z,32.27
2022-11-14T17:21:19.992Z,32.90
2022-11-14T17:23:46.834Z,33.53
2022-11-14T17:26:14.225Z,32.23
2022-11-14T17:28:43.093Z,33.37
2022-11-14T17:31:10.258Z,31.97
2022-11-14T17:33:37.650Z,35.77
2022-11-14T17:36:09.648Z,33.83
2022-11-14T17:38:37.794Z,34.03
2022-11-14T17:41:07.478Z,36.50
2022-11-14T17:43:38.992Z,33.70
2022-11-14T17:46:11.142Z,35.90
2022-11-14T17:48:42.370Z,34.63
2022-11-14T17:51:14.540Z,36.33
2022-11-14T17:53:41.613Z,37.23
2022-11-14T17:56:14.099Z,36.97
2022-11-14T17:58:40.762Z,36.23
2022-11-14T18:01:16.297Z,37.57
2022-11-14T18:03:43.133Z,36.40
2022-11-14T18:06:15.378Z,38.17
2022-11-14T18:08:42.799Z,37.33
2022-11-14T18:11:11.470Z,38.63
2022-11-14T18:13:39.346Z,38.00
2022-11-14T18:16:12.867Z,37.23
2022-11-14T18:18:40.013Z,37.77
2022-11-14T18:21:12.777Z,37.67
2022-11-14T18:23:39.560Z,39.97
2022-11-14T18:26:11.026Z,40.07
2022-11-14T18:28:37.810Z,42.40
2022-11-14T18:31:07.341Z,41.33
2022-11-14T18:33:35.813Z,42.10
2022-11-14T18:36:03.739Z,41.13
2022-11-14T18:38:32.866Z,42.07
2022-11-14T18:41:01.079Z,42.40
2022-11-14T18:43:36.008Z,43.47
2022-11-14T18:46:23.537Z,43.23
2022-11-14T18:48:54.445Z,42.10
2022-11-14T18:51:28.580Z,42.10
2022-11-14T18:53:58.052Z,43.57
2022-11-14T18:56:25.599Z,43.83
2022-11-14T18:58:54.794Z,43.37
2022-11-14T19:01:29.363Z,45.13
2022-11-14T19:04:01.965Z,41.57
2022-11-14T19:06:31.097Z,43.33
2022-11-14T19:09:09.753Z,45.23
2022-11-14T19:12:23.525Z,42.53
2022-11-14T19:14:57.306Z,42.50
2022-11-14T19:17:28.551Z,45.30
2022-11-14T19:20:07.766Z,44.00
2022-11-14T19:22:37.878Z,44.43
2022-11-14T19:25:05.941Z,45.23
2022-11-14T19:27:33.581Z,44.33
2022-11-14T19:30:09.241Z,46.57
2022-11-14T19:32:39.016Z,44.53
2022-11-14T19:35:06.794Z,45.00
2022-11-14T19:37:34.110Z,44.33
2022-11-14T19:40:04.923Z,44.63
2022-11-14T19:42:35.366Z,43.70
2022-11-14T19:45:03.043Z,42.50
2022-11-14T19:47:34.167Z,43.40
2022-11-14T19:50:04.803Z,41.80
2022-11-14T19:52:35.187Z,43.83
2022-11-14T19:55:08.699Z,45.57
2022-11-14T19:57:36.652Z,41.47
2022-11-14T20:00:15.992Z,44.03
2022-11-14T20:02:48.731Z,43.17
2022-11-14T20:05:15.485Z,42.50
2022-11-14T20:07:42.104Z,43.23
2022-11-14T20:10:09.269Z,43.23
2022-11-14T20:12:35.903Z,41.03
2022-11-14T20:15:02.556Z,42.30
2022-11-14T20:17:29.123Z,42.93
2022-11-14T20:19:55.700Z,43.10
2022-11-14T20:22:22.276Z,43.60
2022-11-14T20:24:49.004Z,42.63
2022-11-14T20:27:15.593Z,43.33
2022-11-14T20:29:42.165Z,43.07
2022-11-14T20:32:13.059Z,43.70
2022-11-14T20:34:42.293Z,42.47
2022-11-14T20:37:11.690Z,43.50
2022-11-14T20:39:38.723Z,43.40
2022-11-14T20:42:05.328Z,42.63
2022-11-14T20:44:31.912Z,42.47
2022-11-14T20:46:58.493Z,42.97
2022-11-14T20:49:25.113Z,42.83
2022-11-14T20:51:51.700Z,42.23
2022-11-14T20:54:18.269Z,44.30
2022-11-14T20:56:59.386Z,42.83
2022-11-14T21:02:15.470Z,41.83
2022-11-14T21:04:46.539Z,41.67
2022-11-14T21:07:14.574Z,41.43
2022-11-14T21:09:41.676Z,42.50
2022-11-14T21:12:08.918Z,42.23
2022-11-14T21:14:36.165Z,42.87
2022-11-14T21:17:02.833Z,42.63
2022-11-14T21:19:29.462Z,42.03
2022-11-14T21:21:56.064Z,42.80
2022-11-14T21:24:22.711Z,42.97
2022-11-14T21:26:49.320Z,43.43
2022-11-14T21:29:15.929Z,42.47
2022-11-14T21:31:44.944Z,42.77
2022-11-14T21:34:15.316Z,41.83
2022-11-14T21:36:45.597Z,42.00
2022-11-14T21:39:15.815Z,41.27
2022-11-14T21:41:44.073Z,41.70
2022-11-14T21:44:16.276Z,41.67
2022-11-14T21:46:45.835Z,39.97
2022-11-14T21:49:12.954Z,41.43
2022-11-14T21:51:40.221Z,40.83
2022-11-14T21:54:10.026Z,40.83
2022-11-14T21:56:37.886Z,40.13
2022-11-14T21:59:16.318Z,39.53
2022-11-14T22:02:08.091Z,40.13
2022-11-14T22:04:40.505Z,38.17
2022-11-14T22:07:10.870Z,38.13
2022-11-14T22:09:45.450Z,37.97
2022-11-14T22:15:27.060Z,37.50
2022-11-14T22:17:55.030Z,38.58
2022-11-14T22:20:52.643Z,39.70
2022-11-14T22:23:20.459Z,38.63
2022-11-14T22:26:01.126Z,37.60
2022-11-14T22:28:32.984Z,37.03
2022-11-14T22:31:26.758Z,37.17
2022-11-14T22:33:58.824Z,37.60
2022-11-14T22:36:32.355Z,37.45
2022-11-14T22:39:04.307Z,36.88
2022-11-14T22:41:33.932Z,36.90
2022-11-14T22:44:05.142Z,36.10
2022-11-14T22:46:40.068Z,36.10
2022-11-14T22:49:19.724Z,34.25
2022-11-14T22:51:50.667Z,34.25
2022-11-14T22:54:23.840Z,34.40
2022-11-14T22:56:51.199Z,35.35
2022-11-14T22:59:24.615Z,34.22
2022-11-14T23:01:55.514Z,34.00
2022-11-14T23:04:25.476Z,35.30
2022-11-14T23:07:02.252Z,33.47
2022-11-14T23:09:30.272Z,31.83
2022-11-14T23:11:57.740Z,32.30
2022-11-14T23:14:25.231Z,33.80
2022-11-14T23:16:53.176Z,32.72
2022-11-14T23:19:20.558Z,31.38
2022-11-14T23:21:48.411Z,30.77
2022-11-14T23:24:18.743Z,31.85
2022-11-14T23:26:46.061Z,31.95
2022-11-14T23:29:14.959Z,31.50
2022-11-14T23:31:42.516Z,31.38
2022-11-14T23:34:09.765Z,33.30
2022-11-14T23:36:40.200Z,32.03
2022-11-14T23:39:07.681Z,35.00
2022-11-14T23:41:35.107Z,33.53
2022-11-14T23:44:02.171Z,34.50
2022-11-14T23:46:29.424Z,33.10
2022-11-14T23:48:56.454Z,37.33
2022-11-14T23:51:23.701Z,36.28
2022-11-14T23:53:51.992Z,35.95
2022-11-14T23:56:19.031Z,34.08
2022-11-14T23:58:45.975Z,35.22
